Time;durP1;ratioP1;P1;durP2;ratioP2;P2;SDS_P1;SDS_P2;PMS_P1;PMS_P2;Temp;Humidity;BMP_temperature;BMP_pressure;BME280_temperature;BME280_humidity;BME280_pressure;Samples;Min_cycle;Max_cycle;Signal;HPM_P1;HPM_P2
2021/05/11 15:36:02;;;;;;;6.55;5.90;;;25.30;74.10;;;;;;5006791;27;64489;-41
2021/05/11 15:45:51;;;;;;;5.55;5.05;;;29.20;62.70;;;;;;5132129;27;20104;-83
2021/05/11 15:48:17;;;;;;;5.18;4.78;;;30.40;58.10;;;;;;5065518;27;20047;-67
2021/05/11 15:50:45;;;;;;;4.55;4.22;;;31.50;55.20;;;;;;5056256;28;20048;-73
2021/05/11 15:53:13;;;;;;;7.55;4.72;;;31.00;54.40;;;;;;5070359;28;20094;-73
2021/05/11 15:55:44;;;;;;;5.78;5.22;;;30.40;55.50;;;;;;5069547;28;20056;-75
2021/05/11 15:58:12;;;;;;;5.72;5.13;;;30.40;55.80;;;;;;5012181;28;20494;-71
2021/05/11 16:00:40;;;;;;;6.03;5.43;;;30.40;56.20;;;;;;5069344;28;20052;-74
2021/05/11 16:03:07;;;;;;;6.15;4.88;;;30.50;56.10;;;;;;5075110;28;20540;-72
2021/05/11 16:05:37;;;;;;;6.15;4.05;;;30.50;55.70;;;;;;5069038;28;20057;-74
2021/05/11 16:08:05;;;;;;;6.82;4.00;;;30.40;55.50;;;;;;5069165;28;20048;-72
2021/05/11 16:10:32;;;;;;;4.43;4.13;;;30.10;56.10;;;;;;5069079;28;20044;-73
2021/05/11 16:12:58;;;;;;;4.97;4.40;;;30.00;56.00;;;;;;5069788;28;20052;-74
2021/05/11 16:15:25;;;;;;;6.35;4.78;;;30.00;56.80;;;;;;5068853;28;20067;-76
2021/05/11 16:17:51;;;;;;;5.95;5.45;;;30.00;56.10;;;;;;5068727;28;20048;-75
2021/05/11 16:20:18;;;;;;;5.45;5.00;;;30.10;56.80;;;;;;5069058;28;20489;-73
2021/05/11 16:22:45;;;;;;;6.13;5.38;;;29.90;56.30;;;;;;5075836;28;20041;-72
2021/05/11 16:25:13;;;;;;;6.15;5.63;;;29.80;57.20;;;;;;5076036;28;20055;-73
2021/05/11 16:27:40;;;;;;;6.13;5.53;;;29.80;58.40;;;;;;5089272;28;20048;-72
2021/05/11 16:30:10;;;;;;;8.88;5.93;;;29.50;61.20;;;;;;5085784;28;20041;-71
2021/05/11 16:32:38;;;;;;;7.72;5.20;;;29.10;62.80;;;;;;5069734;28;20048;-75
2021/05/11 16:35:05;;;;;;;6.78;5.57;;;28.90;63.10;;;;;;5069608;28;20052;-76
2021/05/11 16:37:35;;;;;;;6.40;5.93;;;28.60;64.10;;;;;;5076356;28;20047;-78
2021/05/11 16:40:02;;;;;;;5.83;5.33;;;28.60;65.00;;;;;;5069958;28;20053;-75
2021/05/11 16:42:37;;;;;;;6.57;6.07;;;28.50;64.40;;;;;;5069092;28;20051;-74
2021/05/11 16:45:05;;;;;;;9.68;8.73;;;28.40;65.40;;;;;;5069019;28;20091;-74
2021/05/11 16:47:31;;;;;;;8.52;6.80;;;28.20;65.50;;;;;;5068368;28;20041;-73
2021/05/11 16:49:57;;;;;;;6.75;6.15;;;28.10;65.70;;;;;;5068013;28;20044;-72
2021/05/11 16:52:23;;;;;;;6.63;6.03;;;27.90;66.30;;;;;;5068065;28;20475;-74
2021/05/11 16:54:50;;;;;;;6.93;6.30;;;27.60;67.10;;;;;;5076518;28;20067;-74
2021/05/11 16:57:16;;;;;;;7.25;6.57;;;27.60;67.50;;;;;;5058528;28;20044;-73
2021/05/11 16:59:42;;;;;;;7.00;6.38;;;27.50;67.90;;;;;;5075145;28;20055;-73
2021/05/11 17:02:09;;;;;;;7.68;6.68;;;27.30;67.70;;;;;;5064308;28;20040;-72
2021/05/11 17:04:35;;;;;;;6.60;6.15;;;27.20;68.50;;;;;;5055816;28;20171;-71
2021/05/11 17:07:01;;;;;;;7.00;6.43;;;27.00;68.90;;;;;;5055878;28;20049;-71
2021/05/11 17:09:27;;;;;;;7.82;6.97;;;26.90;69.10;;;;;;5055190;28;20102;-71
2021/05/11 17:11:54;;;;;;;10.75;7.05;;;27.00;69.10;;;;;;5055395;28;20095;-70
2021/05/11 17:14:20;;;;;;;7.78;7.18;;;26.80;70.00;;;;;;5055097;28;20048;-70
2021/05/11 17:16:47;;;;;;;6.82;6.15;;;26.90;70.40;;;;;;5055829;28;20488;-70
2021/05/11 17:19:13;;;;;;;7.00;6.30;;;26.80;70.00;;;;;;5055294;28;20475;-71
2021/05/11 17:21:40;;;;;;;7.22;6.57;;;26.60;70.20;;;;;;5054909;28;20049;-71
2021/05/11 17:24:07;;;;;;;6.68;6.05;;;26.50;71.30;;;;;;5057115;28;20109;-70
2021/05/11 17:26:33;;;;;;;8.10;7.28;;;26.30;71.20;;;;;;5054728;28;20489;-70
2021/05/11 17:29:07;;;;;;;7.55;6.95;;;26.20;72.10;;;;;;5055026;28;20048;-70
2021/05/11 17:31:35;;;;;;;8.52;7.35;;;26.20;72.30;;;;;;5055418;28;20135;-69
2021/05/11 17:34:01;;;;;;;8.75;6.80;;;26.10;72.00;;;;;;5055730;28;20385;-71
2021/05/11 17:36:27;;;;;;;6.97;6.47;;;25.90;72.50;;;;;;5054941;28;20459;-70
2021/05/11 17:38:53;;;;;;;7.80;7.18;;;25.80;72.50;;;;;;5055542;28;20045;-71
2021/05/11 17:41:20;;;;;;;8.57;6.70;;;25.70;73.50;;;;;;5055729;28;20041;-72
2021/05/11 17:43:46;;;;;;;7.35;6.65;;;25.60;73.10;;;;;;5055255;28;20049;-72
2021/05/11 17:46:13;;;;;;;8.75;6.95;;;25.50;73.70;;;;;;5054818;28;20057;-71
2021/05/11 17:48:40;;;;;;;7.47;6.88;;;25.50;73.80;;;;;;5054688;28;20060;-70
2021/05/11 17:51:07;;;;;;;7.22;6.65;;;25.40;74.40;;;;;;5054669;28;20041;-70
2021/05/11 17:53:33;;;;;;;6.68;6.05;;;25.30;74.70;;;;;;5054789;28;20041;-71
2021/05/11 17:55:59;;;;;;;6.97;6.28;;;25.20;75.00;;;;;;5056483;28;20053;-71
2021/05/11 17:58:25;;;;;;;7.18;6.57;;;25.10;75.10;;;;;;5063629;28;20045;-71
2021/05/11 18:00:52;;;;;;;8.52;7.05;;;25.00;75.20;;;;;;5054885;28;20055;-70
2021/05/11 18:03:20;;;;;;;8.57;7.68;;;24.90;75.30;;;;;;5053956;28;20127;-71
2021/05/11 18:05:46;;;;;;;20.35;13.73;;;24.90;75.20;;;;;;5053871;28;20455;-70
2021/05/11 18:08:13;;;;;;;10.20;9.15;;;24.80;76.40;;;;;;5053420;28;20049;-71
2021/05/11 18:10:39;;;;;;;10.45;8.25;;;24.60;76.50;;;;;;5070297;28;20044;-72
2021/05/11 18:13:06;;;;;;;9.18;8.35;;;24.50;76.10;;;;;;5068778;28;20044;-71
2021/05/11 18:15:33;;;;;;;12.02;11.00;;;24.30;77.30;;;;;;5055977;28;20052;-71
2021/05/11 18:17:59;;;;;;;9.75;8.73;;;24.30;78.00;;;;;;5066045;28;20144;-70
2021/05/11 18:20:26;;;;;;;7.90;7.20;;;24.20;78.30;;;;;;5054161;28;20048;-70
2021/05/11 18:22:52;;;;;;;10.68;9.13;;;24.00;79.10;;;;;;5054177;28;20056;-70
2021/05/11 18:25:20;;;;;;;9.63;8.75;;;23.90;79.40;;;;;;5056547;28;20497;-71
2021/05/11 18:27:46;;;;;;;7.60;6.95;;;23.90;79.50;;;;;;5054120;28;20068;-71
2021/05/11 18:30:16;;;;;;;10.18;7.47;;;23.80;79.80;;;;;;5054135;28;20523;-71
2021/05/11 18:32:43;;;;;;;7.85;7.25;;;23.60;80.20;;;;;;5054190;28;20049;-71
2021/05/11 18:35:10;;;;;;;7.32;6.63;;;23.50;81.00;;;;;;5054174;28;20048;-71
2021/05/11 18:37:38;;;;;;;7.15;6.55;;;23.40;81.40;;;;;;5060379;28;20086;-71
2021/05/11 18:40:06;;;;;;;8.05;7.25;;;23.30;81.50;;;;;;5058262;28;20041;-72
2021/05/11 18:42:32;;;;;;;8.63;6.88;;;23.20;81.90;;;;;;5057805;28;20568;-72
2021/05/11 18:44:59;;;;;;;8.38;7.57;;;23.10;83.00;;;;;;5040496;28;20060;-71
2021/05/11 18:47:25;;;;;;;8.85;8.10;;;22.90;83.70;;;;;;5042366;28;20071;-71
2021/05/11 18:49:51;;;;;;;7.60;6.90;;;22.80;84.10;;;;;;5054491;28;20409;-72
2021/05/11 18:52:18;;;;;;;6.47;5.97;;;22.70;84.60;;;;;;5054207;28;20044;-71
2021/05/11 18:54:47;;;;;;;7.60;6.63;;;22.60;84.80;;;;;;5054176;28;20045;-71
2021/05/11 18:57:13;;;;;;;6.32;5.90;;;22.60;85.30;;;;;;5058083;28;20041;-70
2021/05/11 18:59:41;;;;;;;9.38;7.22;;;22.60;85.90;;;;;;5054772;28;20044;-71
2021/05/11 19:02:07;;;;;;;6.93;6.40;;;22.50;86.20;;;;;;5055172;28;20067;-70
2021/05/11 19:04:33;;;;;;;6.85;6.25;;;22.40;86.40;;;;;;5055086;28;20053;-72
2021/05/11 19:06:59;;;;;;;7.68;6.97;;;22.30;86.90;;;;;;5054960;28;20049;-71
2021/05/11 19:09:25;;;;;;;6.15;5.68;;;22.20;87.40;;;;;;5054952;28;20045;-71
2021/05/11 19:11:52;;;;;;;8.48;6.78;;;22.20;87.30;;;;;;5054782;28;20124;-70
2021/05/11 19:14:20;;;;;;;6.65;5.78;;;22.20;87.80;;;;;;5054271;28;20041;-70
2021/05/11 19:16:46;;;;;;;8.48;6.32;;;22.10;88.50;;;;;;5054091;28;20654;-71
2021/05/11 19:19:13;;;;;;;9.82;6.50;;;22.00;89.10;;;;;;5054499;28;20049;-71
2021/05/11 19:21:40;;;;;;;6.38;5.78;;;21.90;89.80;;;;;;5053765;28;20507;-71
2021/05/11 19:24:07;;;;;;;9.48;8.07;;;21.80;90.10;;;;;;5053081;28;20150;-71
2021/05/11 19:26:34;;;;;;;7.03;6.35;;;21.70;90.60;;;;;;5052667;28;20489;-71
2021/05/11 19:29:01;;;;;;;6.93;6.32;;;21.80;90.80;;;;;;5052305;28;20044;-71
2021/05/11 19:31:28;;;;;;;6.97;6.25;;;21.80;90.80;;;;;;5053057;28;20116;-70
2021/05/11 19:33:56;;;;;;;6.78;6.07;;;21.70;90.30;;;;;;5053241;28;20045;-71
2021/05/11 19:36:24;;;;;;;6.75;6.15;;;21.70;90.30;;;;;;5053461;28;20084;-71
2021/05/11 19:38:50;;;;;;;7.18;5.95;;;21.70;90.40;;;;;;5053343;28;20052;-70
2021/05/11 19:41:16;;;;;;;5.88;5.35;;;21.60;90.60;;;;;;5053317;28;20049;-71
2021/05/11 19:43:43;;;;;;;6.15;4.95;;;21.50;90.60;;;;;;5068583;28;20055;-71
2021/05/11 19:46:11;;;;;;;6.05;5.50;;;21.40;91.00;;;;;;5065627;28;20056;-71
2021/05/11 19:48:38;;;;;;;5.90;4.78;;;21.30;91.20;;;;;;5061016;28;20037;-71
2021/05/11 19:51:06;;;;;;;10.48;5.00;;;21.20;91.40;;;;;;5072839;28;20045;-71
2021/05/11 19:53:34;;;;;;;5.60;4.63;;;20.90;91.50;;;;;;5072493;28;20049;-71
2021/05/11 19:56:00;;;;;;;8.85;5.88;;;20.80;91.80;;;;;;5062975;28;20059;-70
2021/05/11 19:58:27;;;;;;;4.38;4.07;;;20.60;92.00;;;;;;5052337;28;20045;-70
2021/05/11 20:00:54;;;;;;;4.82;4.43;;;20.50;92.20;;;;;;5052271;28;20052;-70
2021/05/11 20:03:22;;;;;;;6.22;4.40;;;20.30;92.40;;;;;;5052711;28;20441;-71
2021/05/11 20:05:48;;;;;;;5.35;4.88;;;20.10;92.60;;;;;;5051822;28;20049;-69
2021/05/11 20:08:15;;;;;;;5.10;4.55;;;19.90;93.00;;;;;;5052207;28;20040;-70
2021/05/11 20:10:41;;;;;;;4.88;4.43;;;19.80;93.20;;;;;;5055380;28;20045;-71
2021/05/11 20:13:07;;;;;;;7.90;4.45;;;19.80;93.40;;;;;;5053566;28;20041;-71
2021/05/11 20:15:33;;;;;;;3.83;3.53;;;19.70;93.40;;;;;;5052114;28;20451;-71
2021/05/11 20:18:00;;;;;;;9.80;4.35;;;19.70;93.50;;;;;;5052290;28;20111;-72
2021/05/11 20:20:27;;;;;;;4.63;3.58;;;19.60;93.70;;;;;;5052658;28;20067;-71
2021/05/11 20:22:54;;;;;;;5.32;3.78;;;19.50;93.80;;;;;;5052630;28;20045;-71
2021/05/11 20:25:21;;;;;;;4.65;4.25;;;19.50;93.90;;;;;;5052040;28;20053;-70
2021/05/11 20:27:47;;;;;;;5.18;4.10;;;19.30;93.70;;;;;;5052443;28;20048;-71
2021/05/11 20:30:15;;;;;;;5.07;4.50;;;19.20;93.90;;;;;;5052590;28;20071;-71
2021/05/11 20:32:41;;;;;;;7.30;4.43;;;19.10;94.00;;;;;;5056405;28;20049;-70
2021/05/11 20:35:12;;;;;;;4.93;4.43;;;19.10;94.10;;;;;;5056082;28;20041;-71
2021/05/11 20:37:43;;;;;;;5.97;4.40;;;19.00;94.20;;;;;;5055482;28;20068;-71
2021/05/11 20:40:10;;;;;;;4.70;4.20;;;18.90;94.70;;;;;;5059610;28;20127;-70
2021/05/11 20:42:37;;;;;;;6.38;5.05;;;18.70;94.50;;;;;;5063478;28;20087;-71
2021/05/11 20:45:04;;;;;;;7.68;4.13;;;18.60;95.00;;;;;;5059280;28;20416;-70
2021/05/11 20:47:31;;;;;;;8.55;5.70;;;18.60;95.20;;;;;;5055596;28;20045;-70
2021/05/11 20:49:57;;;;;;;5.38;4.88;;;18.50;95.30;;;;;;5055678;28;20071;-71
2021/05/11 20:52:23;;;;;;;5.65;4.75;;;18.40;95.70;;;;;;5055873;28;20056;-71
2021/05/11 20:54:50;;;;;;;6.30;5.50;;;18.20;96.00;;;;;;5056405;28;20052;-71
2021/05/11 20:57:16;;;;;;;7.97;5.78;;;18.20;96.20;;;;;;5055721;28;20432;-69
2021/05/11 20:59:43;;;;;;;6.05;5.32;;;18.30;96.50;;;;;;5056016;28;20075;-70
2021/05/11 21:02:09;;;;;;;5.32;4.82;;;18.30;96.70;;;;;;5055633;28;20056;-69
2021/05/11 21:04:35;;;;;;;6.18;4.82;;;18.30;96.90;;;;;;5055420;28;20056;-70
2021/05/11 21:07:01;;;;;;;6.03;5.53;;;18.30;96.90;;;;;;5055463;28;20377;-70
2021/05/11 21:09:27;;;;;;;5.57;5.05;;;18.40;96.90;;;;;;5056411;28;20041;-70
2021/05/11 21:11:54;;;;;;;4.88;4.47;;;18.30;97.10;;;;;;5073233;28;20094;-70
2021/05/11 21:14:20;;;;;;;5.55;4.93;;;18.40;97.20;;;;;;5059718;28;20060;-70
2021/05/11 21:16:46;;;;;;;7.35;4.93;;;18.40;96.90;;;;;;5055475;28;20045;-70
2021/05/11 21:19:13;;;;;;;4.35;3.95;;;18.40;97.10;;;;;;5055114;28;20049;-70
2021/05/11 21:21:39;;;;;;;4.43;3.85;;;18.30;97.40;;;;;;5056317;28;20489;-72
2021/05/11 21:24:06;;;;;;;3.95;3.55;;;18.30;97.50;;;;;;5054804;28;20878;-70
2021/05/11 21:26:32;;;;;;;4.53;3.63;;;18.30;97.90;;;;;;5054631;28;20052;-69
2021/05/11 21:28:59;;;;;;;3.55;3.25;;;18.40;97.80;;;;;;5054864;28;20041;-70
2021/05/11 21:31:25;;;;;;;3.55;3.25;;;18.30;97.80;;;;;;5055341;28;20045;-69
2021/05/11 21:33:51;;;;;;;4.18;3.78;;;18.40;97.70;;;;;;5057428;28;20439;-69
2021/05/11 21:36:17;;;;;;;3.40;3.10;;;18.30;97.40;;;;;;5066182;28;20049;-70
2021/05/11 21:38:43;;;;;;;4.45;2.88;;;18.30;97.60;;;;;;5055071;28;20547;-69
2021/05/11 21:41:09;;;;;;;2.90;2.70;;;18.30;97.20;;;;;;5055288;28;20060;-70
2021/05/11 21:43:35;;;;;;;3.33;3.03;;;18.10;97.80;;;;;;5054725;28;20041;-70
2021/05/11 21:46:02;;;;;;;3.67;2.75;;;18.20;97.60;;;;;;5054602;28;20143;-70
2021/05/11 21:48:29;;;;;;;4.18;2.53;;;18.10;97.70;;;;;;5054610;28;20512;-70
2021/05/11 21:50:55;;;;;;;3.35;2.63;;;18.10;97.60;;;;;;5054864;28;20041;-70
2021/05/11 21:53:21;;;;;;;2.53;2.33;;;18.00;98.10;;;;;;5055121;28;20099;-70
2021/05/11 21:55:47;;;;;;;6.05;3.10;;;18.10;98.30;;;;;;5054459;28;20045;-70
2021/05/11 21:58:16;;;;;;;4.28;3.10;;;18.10;97.80;;;;;;5054407;28;20052;-69
2021/05/11 22:00:43;;;;;;;3.85;2.70;;;18.10;96.90;;;;;;5054564;28;20496;-69
2021/05/11 22:03:11;;;;;;;3.72;2.83;;;18.10;96.90;;;;;;5054603;28;20787;-70
2021/05/11 22:05:40;;;;;;;5.90;2.47;;;18.00;97.20;;;;;;5054593;28;20045;-70
2021/05/11 22:08:06;;;;;;;2.40;2.22;;;18.00;97.30;;;;;;5055023;28;20037;-69
2021/05/11 22:10:34;;;;;;;2.60;2.40;;;18.00;97.40;;;;;;5054066;28;20110;-69
2021/05/11 22:13:01;;;;;;;2.63;2.00;;;18.00;97.20;;;;;;5034551;28;20045;-70
2021/05/11 22:15:28;;;;;;;4.65;2.47;;;18.00;97.30;;;;;;5050818;28;20044;-69
2021/05/11 22:17:55;;;;;;;3.13;2.08;;;18.00;97.80;;;;;;5053807;28;20060;-69
2021/05/11 22:20:23;;;;;;;3.30;2.13;;;17.90;98.00;;;;;;5054680;28;20054;-69
2021/05/11 22:22:49;;;;;;;2.58;2.38;;;17.90;98.40;;;;;;5054061;28;20053;-69
2021/05/11 22:25:16;;;;;;;2.75;1.55;;;17.90;98.70;;;;;;5053961;28;20052;-69
2021/05/11 22:27:42;;;;;;;2.60;1.52;;;17.80;99.10;;;;;;5066295;28;20072;-69
2021/05/11 22:30:09;;;;;;;2.47;2.00;;;17.70;99.30;;;;;;5070702;28;20045;-69
2021/05/11 22:32:36;;;;;;;2.75;1.60;;;17.70;99.00;;;;;;5054839;28;20512;-70
2021/05/11 22:35:02;;;;;;;2.92;1.92;;;17.80;99.30;;;;;;5053654;28;20051;-70
2021/05/11 22:37:29;;;;;;;3.97;1.38;;;17.70;99.90;;;;;;5053109;28;20075;-70
2021/05/11 22:39:55;;;;;;;1.73;1.63;;;17.70;99.90;;;;;;5053478;28;20054;-70
2021/05/11 22:42:22;;;;;;;1.65;1.27;;;17.80;99.90;;;;;;5053889;28;20045;-70
2021/05/11 22:44:48;;;;;;;2.30;1.60;;;17.90;99.90;;;;;;5052907;28;20083;-70
2021/05/11 22:47:14;;;;;;;1.83;1.73;;;17.90;99.90;;;;;;5053532;28;20056;-69
2021/05/11 22:49:40;;;;;;;2.33;1.48;;;17.80;99.90;;;;;;5053524;28;20045;-69
2021/05/11 22:52:06;;;;;;;2.95;2.38;;;17.60;99.90;;;;;;5053692;28;20045;-69
2021/05/11 22:54:33;;;;;;;2.28;2.10;;;17.50;99.90;;;;;;5053062;28;20060;-69
2021/05/11 22:56:59;;;;;;;2.13;1.80;;;17.40;99.90;;;;;;5052908;28;20049;-69
2021/05/11 22:59:27;;;;;;;2.65;1.75;;;17.20;99.90;;;;;;5053776;28;20048;-70
2021/05/11 23:01:53;;;;;;;4.22;2.58;;;17.20;99.90;;;;;;5053524;28;20099;-69
2021/05/11 23:04:19;;;;;;;6.00;2.00;;;17.10;99.90;;;;;;5053630;28;20072;-69
2021/05/11 23:06:45;;;;;;;3.15;1.77;;;17.10;99.90;;;;;;5058722;28;20045;-69
2021/05/11 23:09:11;;;;;;;3.58;2.40;;;17.00;99.90;;;;;;5054439;28;20420;-69
2021/05/11 23:11:38;;;;;;;2.17;1.70;;;16.90;99.90;;;;;;5065079;28;20037;-70
2021/05/11 23:14:05;;;;;;;2.40;1.77;;;16.90;99.90;;;;;;5053348;28;20049;-69
2021/05/11 23:16:32;;;;;;;3.28;2.60;;;17.00;99.90;;;;;;5052860;28;20075;-70
2021/05/11 23:19:00;;;;;;;3.20;2.22;;;17.10;99.90;;;;;;5052548;28;20041;-69
2021/05/11 23:21:27;;;;;;;2.50;2.03;;;17.00;99.90;;;;;;5053200;28;20135;-69
2021/05/11 23:23:53;;;;;;;2.85;1.98;;;17.00;99.90;;;;;;5053080;28;20056;-70
2021/05/11 23:26:19;;;;;;;2.38;1.90;;;17.00;99.90;;;;;;5054760;28;20048;-69
2021/05/11 23:28:47;;;;;;;2.92;2.42;;;16.80;99.90;;;;;;5073019;28;20048;-70
2021/05/11 23:31:13;;;;;;;2.10;1.90;;;16.90;99.90;;;;;;5073243;28;20078;-69
2021/05/11 23:33:40;;;;;;;4.10;2.22;;;16.90;99.90;;;;;;5059059;28;20049;-70
2021/05/11 23:36:09;;;;;;;2.42;2.22;;;16.90;99.90;;;;;;5052741;28;20040;-70
2021/05/11 23:38:35;;;;;;;3.50;2.85;;;16.90;99.90;;;;;;5052529;28;20048;-70
2021/05/11 23:41:01;;;;;;;3.08;2.00;;;16.90;99.90;;;;;;5053100;28;20056;-71
2021/05/11 23:43:27;;;;;;;2.33;2.13;;;16.90;99.90;;;;;;5053135;28;20045;-70
2021/05/11 23:45:54;;;;;;;2.50;2.30;;;16.80;99.90;;;;;;5052533;28;20060;-70
2021/05/11 23:48:20;;;;;;;2.67;2.47;;;16.70;99.90;;;;;;5052492;28;20056;-70
2021/05/11 23:50:47;;;;;;;2.85;2.65;;;16.60;99.90;;;;;;5052686;28;20098;-70
2021/05/11 23:53:13;;;;;;;3.47;2.55;;;16.60;99.90;;;;;;5052566;28;20049;-69
2021/05/11 23:55:39;;;;;;;3.35;2.75;;;16.70;99.90;;;;;;5052128;28;20056;-70
2021/05/11 23:58:05;;;;;;;4.30;2.83;;;16.60;99.90;;;;;;5052384;28;20476;-70
